»·PEaware :: N333ZS KAVQ-KBXK

N333ZS :: KAVQ-KBXK

FLIGHT INFORMATION

Flight Status: Arrived
Operator: Privately registered:
United States
More flights under this callsign
Pilot: Judd H. (29974)
Aircraft: CESSNA 182 SKYLANE
(C182)
More flights by this aircraft type
Origin: KAVQ Marana Northwest Regl
United States
Destination: KBXK Buckeye Mun
United States
More flights between these airports :: More routes between these airports
Route: GBN V66 FOUTZ
File this flight plan on PilotEdge
Remarks:
Altitude:
(Current/Filed)
7,000ft
Speed:
(Current/Filed)
120kts
Departed: 25-Sep-20 12:30 AM
Arrived: 25-Sep-20 01:19 AM
Distance/Time
Traveled:
96nm/0:48
Distance/Time
To Go:
Arrived

Flight Plot

Page will automatically refresh every two minutes.

Flight plan parsing failed; only flown route is shown


Map Options




Map Legend


Flown Route
Filed Route
Departure Airport
Arrival Airport
Navaid (VOR, NDB)
Fix

Horizontal Profiles

Position Reports

Time Latitude Longitude Heading Altitude Ground
Speed
25-Sep-20 00:26 32.404746 -111.214359 224 2034ft 0kts
25-Sep-20 00:27 32.405355 -111.214008 333 2034ft 22kts
25-Sep-20 00:28 32.410136 -111.213761 40 2034ft 16kts
25-Sep-20 00:29 32.399985 -111.225917 223 2368ft 99kts
25-Sep-20 00:30 32.395926 -111.258249 299 3217ft 122kts
25-Sep-20 00:31 32.415182 -111.295342 284 3646ft 136kts
25-Sep-20 00:32 32.421683 -111.336105 277 4215ft 116kts
25-Sep-20 00:33 32.427565 -111.372247 279 4834ft 111kts
25-Sep-20 00:34 32.434825 -111.407885 281 5439ft 110kts
25-Sep-20 00:35 32.441907 -111.442960 282 6028ft 108kts
25-Sep-20 00:36 32.448933 -111.477506 281 6616ft 106kts
25-Sep-20 00:37 32.454974 -111.512635 279 6998ft 120kts
25-Sep-20 00:38 32.460988 -111.554895 279 6988ft 135kts
25-Sep-20 00:39 32.467221 -111.599130 279 6983ft 135kts
25-Sep-20 00:40 32.473291 -111.642483 279 6978ft 132kts
25-Sep-20 00:41 32.479273 -111.685422 279 6979ft 132kts
25-Sep-20 00:42 32.494130 -111.725017 298 6971ft 133kts
25-Sep-20 00:43 32.512333 -111.763197 297 6955ft 134kts
25-Sep-20 00:44 32.532190 -111.803070 298 6951ft 143kts
25-Sep-20 00:45 32.552502 -111.843900 298 6947ft 144kts
25-Sep-20 00:46 32.572915 -111.884905 298 6947ft 144kts
25-Sep-20 00:47 32.593211 -111.925658 298 6947ft 144kts
25-Sep-20 00:48 32.613535 -111.966474 298 6947ft 144kts
25-Sep-20 00:49 32.633966 -112.007532 298 6947ft 144kts
25-Sep-20 00:50 32.654332 -112.048515 298 6947ft 144kts
25-Sep-20 00:51 32.674652 -112.089487 298 6946ft 144kts
25-Sep-20 00:52 32.694962 -112.130524 298 6945ft 144kts
25-Sep-20 00:53 32.715415 -112.171747 298 6937ft 144kts
25-Sep-20 00:54 32.735826 -112.212349 297 6934ft 142kts
25-Sep-20 00:55 32.755749 -112.253289 297 6935ft 142kts
25-Sep-20 00:56 32.775632 -112.294199 297 6934ft 143kts
25-Sep-20 00:57 32.795503 -112.335148 297 6932ft 143kts
25-Sep-20 00:58 32.815411 -112.376230 297 6929ft 143kts
25-Sep-20 00:59 32.835439 -112.417398 298 6928ft 143kts
25-Sep-20 01:00 32.854695 -112.458665 296 6926ft 143kts
25-Sep-20 01:01 32.874252 -112.500068 296 6916ft 142kts
25-Sep-20 01:02 32.893323 -112.541013 296 6906ft 140kts
25-Sep-20 01:03 32.912238 -112.581591 296 6906ft 140kts
25-Sep-20 01:04 32.931164 -112.622158 296 6907ft 140kts
25-Sep-20 01:05 32.950863 -112.662253 306 6902ft 141kts
25-Sep-20 01:06 32.988110 -112.677473 356 6486ft 144kts
25-Sep-20 01:07 33.028098 -112.680225 1 5986ft 144kts
25-Sep-20 01:08 33.068430 -112.680915 359 5493ft 145kts
25-Sep-20 01:09 33.109071 -112.682477 359 5003ft 146kts
25-Sep-20 01:10 33.147873 -112.683827 2 4895ft 132kts
25-Sep-20 01:11 33.187474 -112.683469 2 4480ft 150kts
25-Sep-20 01:12 33.229100 -112.686285 358 3987ft 149kts
25-Sep-20 01:13 33.270482 -112.687433 357 3477ft 146kts
25-Sep-20 01:14 33.309710 -112.690324 353 2969ft 137kts
25-Sep-20 01:15 33.345333 -112.689113 359 2422ft 104kts
25-Sep-20 01:16 33.374097 -112.688220 359 1882ft 109kts
25-Sep-20 01:17 33.402481 -112.687069 0 1308ft 83kts
25-Sep-20 01:18 33.421335 -112.686232 4 1036ft 37kts

Navigation Log

Ident Type
Flight plan parsing failed, navigation log unavailable